createdAt,value
2017-11-16T00:02:21.853Z,98942.20
2017-11-16T00:04:50.138Z,98936.59
2017-11-16T00:07:18.446Z,98935.30
2017-11-16T00:09:46.706Z,98935.46
2017-11-16T00:12:14.998Z,98937.64
2017-11-16T00:14:43.289Z,98931.20
2017-11-16T00:17:11.580Z,98929.70
2017-11-16T00:19:39.857Z,98926.85
2017-11-16T00:22:08.144Z,98924.75
2017-11-16T00:24:36.694Z,98926.69
2017-11-16T00:27:04.978Z,98921.70
2017-11-16T00:29:34.024Z,98912.59
2017-11-16T00:32:02.309Z,98904.17
2017-11-16T00:34:30.595Z,98911.61
2017-11-16T00:36:58.865Z,98906.91
2017-11-16T00:39:27.152Z,98901.95
2017-11-16T00:41:55.429Z,98901.12
2017-11-16T00:44:23.726Z,98893.60
2017-11-16T00:46:51.997Z,98893.60
2017-11-16T00:49:21.042Z,98889.72
2017-11-16T00:51:49.318Z,98876.35
2017-11-16T00:54:17.609Z,98894.08
2017-11-16T00:56:45.904Z,98892.59
2017-11-16T00:59:14.192Z,98894.41
2017-11-16T01:01:43.237Z,98902.13
2017-11-16T01:04:11.530Z,98902.44
2017-11-16T01:06:41.216Z,98903.72
2017-11-16T01:09:09.477Z,98893.28
2017-11-16T01:11:37.745Z,98891.25
2017-11-16T01:14:06.015Z,98891.74
2017-11-16T01:16:35.051Z,98896.42
2017-11-16T01:19:03.323Z,98891.95
2017-11-16T01:21:31.598Z,98900.94
2017-11-16T01:23:59.879Z,98895.23
2017-11-16T01:26:28.224Z,98892.19
2017-11-16T01:28:57.374Z,98896.56
2017-11-16T01:31:25.653Z,98898.59
2017-11-16T01:33:53.933Z,98894.63
2017-11-16T01:36:22.218Z,98892.50
2017-11-16T01:38:50.498Z,98893.02
2017-11-16T01:41:18.780Z,98855.44
2017-11-16T01:43:48.182Z,98891.30
2017-11-16T01:46:16.465Z,98885.02
2017-11-16T01:48:45.517Z,98883.78
2017-11-16T01:51:14.363Z,98879.97
2017-11-16T01:53:42.658Z,98877.94
2017-11-16T01:56:10.937Z,98884.27
2017-11-16T01:58:39.215Z,98879.41
2017-11-16T02:01:07.517Z,98873.52
2017-11-16T02:03:35.809Z,98873.52
2017-11-16T02:06:04.086Z,98872.55
2017-11-16T02:08:32.362Z,98863.73
2017-11-16T02:11:00.658Z,98866.54
2017-11-16T02:13:28.943Z,98866.17
2017-11-16T02:15:57.997Z,98862.06
2017-11-16T02:18:27.420Z,98858.34
2017-11-16T02:20:55.708Z,98848.99
2017-11-16T02:23:23.992Z,98850.81
2017-11-16T02:25:53.026Z,98846.34
2017-11-16T02:28:21.292Z,98853.16
2017-11-16T02:30:49.556Z,98845.95
2017-11-16T02:33:18.426Z,98839.93
2017-11-16T02:35:47.458Z,98839.44
2017-11-16T02:38:15.747Z,98832.03
2017-11-16T02:40:44.019Z,98832.20
2017-11-16T02:43:12.284Z,98832.21
2017-11-16T02:45:40.570Z,98823.57
2017-11-16T02:48:08.845Z,98824.02
2017-11-16T02:50:37.126Z,98820.66
2017-11-16T02:53:05.410Z,98827.37
2017-11-16T02:55:34.094Z,98824.84
2017-11-16T02:58:02.370Z,98821.06
2017-11-16T03:00:30.650Z,98818.56
2017-11-16T03:02:58.934Z,98815.31
2017-11-16T03:05:27.211Z,98816.29
2017-11-16T03:07:55.489Z,98816.77
2017-11-16T03:10:24.029Z,98810.83
2017-11-16T03:12:53.180Z,98814.77
2017-11-16T03:15:21.497Z,98815.36
2017-11-16T03:17:50.506Z,98808.98
2017-11-16T03:20:18.774Z,98816.05
2017-11-16T03:22:47.057Z,98812.16
2017-11-16T03:25:15.345Z,98804.91
2017-11-16T03:27:43.669Z,98801.95
2017-11-16T03:30:11.954Z,98804.18
2017-11-16T03:32:40.234Z,98803.21
2017-11-16T03:35:08.512Z,98800.84
2017-11-16T03:37:36.793Z,98802.85
2017-11-16T03:40:05.069Z,98796.11
2017-11-16T03:42:33.361Z,98801.69
2017-11-16T03:45:01.633Z,98798.78
2017-11-16T03:47:29.913Z,98791.48
2017-11-16T03:49:58.202Z,98787.48
2017-11-16T03:52:26.488Z,98786.50
2017-11-16T03:54:54.770Z,98793.06
2017-11-16T03:57:23.049Z,98801.91
2017-11-16T03:59:51.344Z,98791.55
2017-11-16T04:02:19.626Z,98792.39
2017-11-16T04:04:48.744Z,98800.88
2017-11-16T04:07:17.021Z,98795.55
2017-11-16T04:09:45.303Z,98800.06
2017-11-16T04:12:14.160Z,98799.39
2017-11-16T04:14:42.437Z,98801.89
2017-11-16T04:17:10.712Z,98799.45
2017-11-16T04:19:38.983Z,98803.64
2017-11-16T04:22:07.252Z,98805.09
2017-11-16T04:24:35.525Z,98806.13
2017-11-16T04:27:03.813Z,98815.38
2017-11-16T04:29:32.101Z,98809.28
2017-11-16T04:32:00.386Z,98816.35
2017-11-16T04:34:28.670Z,98811.28
2017-11-16T04:36:56.966Z,98816.62
2017-11-16T04:39:25.250Z,98815.04
2017-11-16T04:41:54.590Z,98812.50
2017-11-16T04:44:22.890Z,98811.23
2017-11-16T04:46:51.715Z,98793.42
2017-11-16T04:49:19.993Z,98798.09
2017-11-16T04:51:49.253Z,98803.33
2017-11-16T04:54:17.534Z,98797.50
2017-11-16T04:56:46.581Z,98797.22
2017-11-16T04:59:14.864Z,98797.93
2017-11-16T05:01:43.753Z,98799.80
2017-11-16T05:04:12.302Z,98794.70
2017-11-16T05:06:40.577Z,98798.48
2017-11-16T05:09:08.866Z,98794.31
2017-11-16T05:11:37.183Z,98799.41
2017-11-16T05:14:05.474Z,98801.58
2017-11-16T05:16:34.572Z,98803.78
2017-11-16T05:19:03.618Z,98803.17
2017-11-16T05:21:31.913Z,98799.74
2017-11-16T05:24:00.201Z,98798.00
2017-11-16T05:26:28.476Z,98798.44
2017-11-16T05:28:56.765Z,98800.14
2017-11-16T05:31:25.041Z,98797.72
2017-11-16T05:33:54.087Z,98804.09
2017-11-16T05:36:22.377Z,98800.55
2017-11-16T05:38:50.657Z,98798.91
2017-11-16T05:41:19.208Z,98808.53
2017-11-16T05:43:47.508Z,98804.64
2017-11-16T05:46:15.785Z,98802.59
2017-11-16T05:48:44.104Z,98800.69
2017-11-16T05:51:12.376Z,98792.74
2017-11-16T05:53:41.418Z,98793.89
2017-11-16T05:56:09.696Z,98785.88
2017-11-16T05:58:37.969Z,98783.33
2017-11-16T06:01:06.244Z,98789.66
2017-11-16T06:03:34.517Z,98802.53
2017-11-16T06:06:02.806Z,98800.98
2017-11-16T06:08:31.085Z,98802.99
2017-11-16T06:10:59.355Z,98802.16
2017-11-16T06:13:27.628Z,98805.37
2017-11-16T06:15:55.914Z,98810.02
2017-11-16T06:18:24.194Z,98802.86
2017-11-16T06:20:52.482Z,98802.89
2017-11-16T06:23:20.762Z,98803.45
2017-11-16T06:25:49.050Z,98799.99
2017-11-16T06:28:17.341Z,98800.12
2017-11-16T06:30:45.625Z,98809.28
2017-11-16T06:33:13.896Z,98811.89
2017-11-16T06:35:42.936Z,98809.33
2017-11-16T06:38:11.230Z,98812.80
2017-11-16T06:40:39.497Z,98819.61
2017-11-16T06:43:07.797Z,98820.39
2017-11-16T06:45:36.077Z,98811.65
2017-11-16T06:48:04.361Z,98813.19
2017-11-16T06:50:33.409Z,98818.79
2017-11-16T06:53:01.703Z,98812.01
2017-11-16T06:55:30.053Z,98814.39
2017-11-16T06:57:58.338Z,98820.17
2017-11-16T07:00:26.657Z,98802.59
2017-11-16T07:02:55.469Z,98812.57
2017-11-16T07:05:23.764Z,98815.98
2017-11-16T07:07:52.045Z,98815.29
2017-11-16T07:10:20.333Z,98809.69
2017-11-16T07:12:48.647Z,98807.22
2017-11-16T07:15:16.926Z,98810.61
2017-11-16T07:17:48.133Z,98818.75
2017-11-16T07:20:16.405Z,98820.54
2017-11-16T07:22:44.681Z,98822.15
2017-11-16T07:25:12.961Z,98816.01
2017-11-16T07:27:41.285Z,98821.16
2017-11-16T07:30:10.342Z,98824.90
2017-11-16T07:32:39.441Z,98826.63
2017-11-16T07:35:07.725Z,98827.19
2017-11-16T07:37:36.009Z,98832.86
2017-11-16T07:40:04.287Z,98824.91
2017-11-16T07:42:32.564Z,98833.05
2017-11-16T07:45:00.849Z,98826.17
2017-11-16T07:47:29.134Z,98831.85
2017-11-16T07:49:58.639Z,98828.30
2017-11-16T07:52:26.929Z,98834.02
2017-11-16T07:54:56.037Z,98826.59
2017-11-16T07:57:24.346Z,98828.48
2017-11-16T07:59:52.622Z,98826.78
2017-11-16T08:02:20.909Z,98818.25
2017-11-16T08:04:49.193Z,98820.59
2017-11-16T08:07:18.453Z,98819.96
2017-11-16T08:09:46.732Z,98817.03
2017-11-16T08:12:15.021Z,98819.23
2017-11-16T08:14:43.297Z,98813.13
2017-11-16T08:17:11.589Z,98814.41
2017-11-16T08:19:39.859Z,98812.37
2017-11-16T08:22:08.128Z,98810.75
2017-11-16T08:24:37.299Z,98811.83
2017-11-16T08:27:05.581Z,98810.05
2017-11-16T08:29:33.877Z,98815.27
2017-11-16T08:32:02.165Z,98822.87
2017-11-16T08:34:30.450Z,98827.53
2017-11-16T08:36:58.734Z,98823.98
2017-11-16T08:39:27.035Z,98824.34
2017-11-16T08:41:56.087Z,98824.25
2017-11-16T08:44:24.389Z,98819.94
2017-11-16T08:46:52.670Z,98817.53
2017-11-16T08:49:21.265Z,98818.16
2017-11-16T08:51:49.538Z,98820.66
2017-11-16T08:54:18.590Z,98821.13
2017-11-16T08:56:46.869Z,98829.15
2017-11-16T08:59:15.152Z,98832.48
2017-11-16T09:01:43.433Z,98831.75
2017-11-16T09:04:11.712Z,98814.62
2017-11-16T09:06:39.994Z,98834.27
2017-11-16T09:09:08.297Z,98837.86
2017-11-16T09:11:36.597Z,98848.66
2017-11-16T09:14:04.874Z,98854.77
2017-11-16T09:16:33.149Z,98857.24
2017-11-16T09:19:01.439Z,98853.16
2017-11-16T09:21:29.746Z,98854.34
2017-11-16T09:23:58.005Z,98858.50
2017-11-16T09:26:26.293Z,98860.61
2017-11-16T09:28:54.569Z,98850.69
2017-11-16T09:31:22.888Z,98853.98
2017-11-16T09:33:51.165Z,98852.05
2017-11-16T09:36:19.450Z,98852.22
2017-11-16T09:38:47.741Z,98844.22
2017-11-16T09:41:16.015Z,98852.46
2017-11-16T09:43:44.290Z,98853.83
2017-11-16T09:46:12.569Z,98853.80
2017-11-16T09:48:40.846Z,98860.91
2017-11-16T09:51:09.127Z,98861.99
2017-11-16T09:53:37.401Z,98859.63
2017-11-16T09:56:05.678Z,98859.19
2017-11-16T09:58:33.957Z,98856.02
2017-11-16T10:01:02.292Z,98847.28
2017-11-16T10:03:31.341Z,98849.69
2017-11-16T10:05:59.621Z,98853.57
2017-11-16T10:08:27.893Z,98850.92
2017-11-16T10:10:56.642Z,98846.62
2017-11-16T10:13:24.931Z,98847.78
2017-11-16T10:15:53.209Z,98838.39
2017-11-16T10:18:23.138Z,98833.20
2017-11-16T10:20:51.418Z,98838.38
2017-11-16T10:23:19.691Z,98841.43
2017-11-16T10:25:47.989Z,98843.23
2017-11-16T10:28:16.265Z,98843.22
2017-11-16T10:30:44.535Z,98851.08
2017-11-16T10:33:12.812Z,98848.55
2017-11-16T10:35:42.052Z,98846.28
2017-11-16T10:38:11.090Z,98845.02
2017-11-16T10:40:39.405Z,98839.59
2017-11-16T10:43:08.449Z,98836.45
2017-11-16T10:45:36.725Z,98836.41
2017-11-16T10:48:05.010Z,98843.73
2017-11-16T10:50:33.280Z,98844.81
2017-11-16T10:53:03.839Z,98837.58
2017-11-16T10:55:32.130Z,98836.84
2017-11-16T10:58:00.408Z,98829.82
2017-11-16T11:00:28.681Z,98825.00
2017-11-16T11:02:56.985Z,98818.27
2017-11-16T11:05:25.265Z,98811.40
2017-11-16T11:07:53.541Z,98807.98
2017-11-16T11:10:23.219Z,98805.39
2017-11-16T11:12:51.516Z,98791.69
2017-11-16T11:15:20.568Z,98789.07
2017-11-16T11:17:48.844Z,98790.36
2017-11-16T11:20:17.125Z,98783.44
2017-11-16T11:22:45.406Z,98779.69
2017-11-16T11:25:13.684Z,98772.01
2017-11-16T11:27:41.955Z,98778.80
2017-11-16T11:30:10.216Z,98778.23
2017-11-16T11:32:38.507Z,98783.99
2017-11-16T11:35:06.789Z,98783.41
2017-11-16T11:37:35.780Z,98785.88
2017-11-16T11:40:04.055Z,98781.50
2017-11-16T11:42:33.212Z,98780.22
2017-11-16T11:45:01.553Z,98779.99
2017-11-16T11:47:30.639Z,98779.37
2017-11-16T11:49:58.937Z,98774.77
2017-11-16T11:52:27.981Z,98770.16
2017-11-16T11:54:56.256Z,98770.02
2017-11-16T11:57:24.545Z,98765.83
2017-11-16T11:59:52.829Z,98766.11
2017-11-16T12:02:21.106Z,98762.98
2017-11-16T12:04:49.381Z,98761.22
2017-11-16T12:07:17.660Z,98757.03
2017-11-16T12:09:45.931Z,98754.48
2017-11-16T12:12:14.209Z,98748.23
2017-11-16T12:14:42.486Z,98736.36
2017-11-16T12:17:10.757Z,98734.36
2017-11-16T12:19:39.045Z,98731.44
2017-11-16T12:22:07.325Z,98727.20
2017-11-16T12:24:35.610Z,98716.39
2017-11-16T12:27:05.264Z,98722.22
2017-11-16T12:29:34.244Z,98714.20
2017-11-16T12:32:02.525Z,98715.67
2017-11-16T12:34:30.813Z,98719.13
2017-11-16T12:36:59.103Z,98726.42
2017-11-16T12:39:27.389Z,98724.28
2017-11-16T12:41:55.665Z,98716.21
2017-11-16T12:44:23.942Z,98718.52
2017-11-16T12:46:52.213Z,98709.52
2017-11-16T12:49:20.513Z,98712.14
2017-11-16T12:51:49.405Z,98707.52
2017-11-16T12:54:20.641Z,98701.09
2017-11-16T12:56:48.934Z,98692.88
2017-11-16T12:59:17.226Z,98702.24
2017-11-16T13:01:45.545Z,98700.41
2017-11-16T13:04:13.824Z,98688.94
2017-11-16T13:06:42.245Z,98696.58
2017-11-16T13:09:11.297Z,98702.77
2017-11-16T13:11:39.570Z,98702.77
2017-11-16T13:14:07.851Z,98704.69
2017-11-16T13:16:36.125Z,98700.78
2017-11-16T13:19:04.405Z,98700.71
2017-11-16T13:21:32.688Z,98694.53
2017-11-16T13:24:00.965Z,98699.74
2017-11-16T13:26:29.241Z,98708.06
2017-11-16T13:28:57.513Z,98703.47
2017-11-16T13:31:25.793Z,98705.86
2017-11-16T13:33:54.062Z,98709.62
2017-11-16T13:36:22.369Z,98706.95
2017-11-16T13:38:51.416Z,98707.30
2017-11-16T13:41:19.695Z,98704.81
2017-11-16T13:43:47.969Z,98706.25
2017-11-16T13:46:17.034Z,98699.94
2017-11-16T13:48:45.319Z,98701.94
2017-11-16T13:51:13.608Z,98703.77
2017-11-16T13:53:41.890Z,98703.82
2017-11-16T13:56:10.169Z,98705.39
2017-11-16T13:58:38.439Z,98701.14
2017-11-16T14:01:06.715Z,98699.59
2017-11-16T14:03:34.998Z,98700.52
2017-11-16T14:06:03.268Z,98692.15
2017-11-16T14:08:32.202Z,98679.19
2017-11-16T14:11:00.498Z,98683.63
2017-11-16T14:13:29.550Z,98678.55
2017-11-16T14:15:57.822Z,98675.14
2017-11-16T14:18:26.107Z,98675.59
2017-11-16T14:20:54.385Z,98670.28
2017-11-16T14:23:22.711Z,98668.86
2017-11-16T14:25:51.025Z,98669.48
2017-11-16T14:28:19.733Z,98671.69
2017-11-16T14:30:48.025Z,98675.08
2017-11-16T14:33:16.321Z,98676.08
2017-11-16T14:35:44.619Z,98688.67
2017-11-16T14:38:12.899Z,98689.75
2017-11-16T14:40:41.173Z,98680.69
2017-11-16T14:43:09.450Z,98686.04
2017-11-16T14:45:37.812Z,98693.22
2017-11-16T14:48:06.106Z,98694.62
2017-11-16T14:50:34.702Z,98693.20
2017-11-16T14:53:02.984Z,98691.72
2017-11-16T14:55:31.268Z,98684.44
2017-11-16T14:57:59.547Z,98682.84
2017-11-16T15:00:27.878Z,98681.52
2017-11-16T15:02:56.174Z,98679.80
2017-11-16T15:05:24.960Z,98679.18
2017-11-16T15:07:53.252Z,98681.15
2017-11-16T15:10:22.334Z,98669.05
2017-11-16T15:12:50.643Z,98672.59
2017-11-16T15:15:18.902Z,98666.77
2017-11-16T15:17:47.173Z,98665.61
2017-11-16T15:20:15.450Z,98663.81
2017-11-16T15:22:44.630Z,98659.36
2017-11-16T15:25:13.789Z,98662.20
2017-11-16T15:27:42.058Z,98660.20
2017-11-16T15:30:10.342Z,98665.55
2017-11-16T15:32:39.678Z,98665.73
2017-11-16T15:35:07.958Z,98668.81
2017-11-16T15:37:36.241Z,98673.45
2017-11-16T15:40:04.519Z,98675.80
2017-11-16T15:42:32.834Z,98676.54
2017-11-16T15:45:01.133Z,98686.92
2017-11-16T15:47:29.410Z,98684.63
2017-11-16T15:49:58.453Z,98681.45
2017-11-16T15:52:26.732Z,98673.96
2017-11-16T15:54:55.012Z,98677.56
2017-11-16T15:57:23.294Z,98670.27
2017-11-16T15:59:51.629Z,98672.75
2017-11-16T16:02:19.908Z,98674.17
2017-11-16T16:04:48.187Z,98676.64
2017-11-16T16:07:16.862Z,98681.97
2017-11-16T16:09:45.149Z,98680.33
2017-11-16T16:12:13.427Z,98674.40
2017-11-16T16:14:41.710Z,98676.66
2017-11-16T16:17:10.025Z,98672.55
2017-11-16T16:19:38.305Z,98667.15
2017-11-16T16:22:06.582Z,98673.23
2017-11-16T16:24:34.987Z,98670.14
2017-11-16T16:27:04.087Z,98663.75
2017-11-16T16:29:32.424Z,98663.95
2017-11-16T16:32:00.757Z,98669.69
2017-11-16T16:34:30.102Z,98670.23
2017-11-16T16:36:58.464Z,98672.92
2017-11-16T16:39:26.820Z,98672.91
2017-11-16T16:41:55.140Z,98675.77
2017-11-16T16:44:23.459Z,98673.83
2017-11-16T16:46:51.795Z,98668.78
2017-11-16T16:49:20.775Z,98679.52
2017-11-16T16:51:49.107Z,98679.04
2017-11-16T16:54:17.433Z,98674.80
2017-11-16T16:56:46.783Z,98668.78
2017-11-16T16:59:15.127Z,98671.52
2017-11-16T17:01:43.460Z,98677.61
2017-11-16T17:04:11.814Z,98680.10
2017-11-16T17:06:41.422Z,98681.02
2017-11-16T17:09:09.772Z,98677.15
2017-11-16T17:11:38.135Z,98674.95
2017-11-16T17:14:06.470Z,98683.23
2017-11-16T17:16:34.798Z,98678.57
2017-11-16T17:19:03.129Z,98679.02
2017-11-16T17:21:31.459Z,98685.81
2017-11-16T17:23:59.789Z,98688.64
2017-11-16T17:26:28.147Z,98684.13
2017-11-16T17:28:56.480Z,98680.75
2017-11-16T17:31:24.823Z,98687.88
2017-11-16T17:33:53.614Z,98678.77
2017-11-16T17:36:22.462Z,98690.87
2017-11-16T17:38:51.577Z,98688.87
2017-11-16T17:41:19.955Z,98692.11
2017-11-16T17:43:48.290Z,98684.50
2017-11-16T17:46:16.637Z,98697.92
2017-11-16T17:48:45.171Z,98693.00
2017-11-16T17:51:14.534Z,98693.88
2017-11-16T17:53:43.581Z,98693.17
2017-11-16T17:56:12.081Z,98695.39
2017-11-16T17:58:40.537Z,98696.88
2017-11-16T18:01:09.275Z,98698.15
2017-11-16T18:03:38.040Z,98694.57
2017-11-16T18:06:06.506Z,98696.13
2017-11-16T18:08:35.018Z,98697.81
2017-11-16T18:11:03.660Z,98701.00
2017-11-16T18:13:32.175Z,98697.23
2017-11-16T18:16:01.143Z,98701.71
2017-11-16T18:18:30.414Z,98704.05
2017-11-16T18:20:59.687Z,98706.64
2017-11-16T18:23:28.242Z,98707.50
2017-11-16T18:25:56.993Z,98705.86
2017-11-16T18:28:26.652Z,98707.75
2017-11-16T18:30:56.284Z,98706.14
2017-11-16T18:33:26.765Z,98706.55
2017-11-16T18:35:56.617Z,98695.88
2017-11-16T18:38:26.236Z,98706.23
2017-11-16T18:40:55.962Z,98710.95
2017-11-16T18:43:26.183Z,98712.08
2017-11-16T18:45:56.154Z,98711.66
2017-11-16T18:48:26.007Z,98708.25
2017-11-16T18:50:55.931Z,98711.92
2017-11-16T18:53:26.977Z,98706.73
2017-11-16T18:55:56.919Z,98709.61
2017-11-16T18:58:26.881Z,98699.36
2017-11-16T19:00:56.716Z,98704.99
2017-11-16T19:03:28.201Z,98707.66
2017-11-16T19:05:58.060Z,98704.62
2017-11-16T19:08:29.211Z,98708.05
2017-11-16T19:11:02.949Z,98707.82
2017-11-16T19:13:33.594Z,98712.83
2017-11-16T19:16:04.274Z,98714.84
2017-11-16T19:18:34.107Z,98713.98
2017-11-16T19:21:03.893Z,98721.59
2017-11-16T19:23:33.665Z,98719.91
2017-11-16T19:26:03.546Z,98722.70
2017-11-16T19:28:33.349Z,98725.58
2017-11-16T19:31:03.203Z,98720.58
2017-11-16T19:33:33.595Z,98725.85
2017-11-16T19:36:03.500Z,98728.43
2017-11-16T19:38:34.117Z,98720.34
2017-11-16T19:41:04.005Z,98721.12
2017-11-16T19:43:34.097Z,98728.83
2017-11-16T19:46:04.912Z,98729.78
2017-11-16T19:48:35.564Z,98728.06
2017-11-16T19:51:05.457Z,98719.96
2017-11-16T19:53:35.514Z,98725.60
2017-11-16T19:56:05.861Z,98736.20
2017-11-16T19:58:35.772Z,98732.41
2017-11-16T20:01:05.719Z,98744.55
2017-11-16T20:03:35.621Z,98741.66
2017-11-16T20:06:05.480Z,98744.88
2017-11-16T20:08:37.255Z,98745.78
2017-11-16T20:11:07.140Z,98749.88
2017-11-16T20:13:37.826Z,98749.70
2017-11-16T20:16:08.685Z,98750.72
2017-11-16T20:18:38.625Z,98751.34
2017-11-16T20:21:08.533Z,98745.99
2017-11-16T20:23:39.154Z,98747.52
2017-11-16T20:26:09.949Z,98741.31
2017-11-16T20:28:40.057Z,98746.63
2017-11-16T20:31:10.535Z,98743.41
2017-11-16T20:33:40.518Z,98743.27
2017-11-16T20:36:10.563Z,98733.08
2017-11-16T20:42:02.212Z,98739.20
2017-11-16T20:47:44.710Z,98736.31
2017-11-16T20:53:35.981Z,98742.95
2017-11-16T20:56:06.804Z,98741.91
2017-11-16T20:58:36.920Z,98746.20
2017-11-16T21:01:07.006Z,98755.14
2017-11-16T21:03:37.167Z,98753.03
2017-11-16T21:06:06.986Z,98750.45
2017-11-16T21:08:37.485Z,98746.03
2017-11-16T21:11:08.208Z,98753.75
2017-11-16T21:13:38.027Z,98754.09
2017-11-16T21:16:08.641Z,98748.94
2017-11-16T21:18:39.050Z,98748.93
2017-11-16T21:21:08.858Z,98752.98
2017-11-16T21:23:39.389Z,98739.30
2017-11-16T21:26:09.175Z,98746.31
2017-11-16T21:28:39.755Z,98749.09
2017-11-16T21:31:13.587Z,98746.16
2017-11-16T21:33:43.209Z,98744.18
2017-11-16T21:36:13.060Z,98748.92
2017-11-16T21:38:42.923Z,98738.53
2017-11-16T21:41:12.619Z,98741.59
2017-11-16T21:43:43.320Z,98744.22
2017-11-16T21:46:12.864Z,98747.10
2017-11-16T21:48:42.523Z,98742.45
2017-11-16T21:51:12.032Z,98741.07
2017-11-16T21:53:40.597Z,98743.31
2017-11-16T21:56:09.003Z,98746.14
2017-11-16T21:58:38.140Z,98752.41
2017-11-16T22:01:07.362Z,98751.32
2017-11-16T22:03:36.842Z,98749.09
2017-11-16T22:06:05.238Z,98742.23
2017-11-16T22:08:33.697Z,98748.11
2017-11-16T22:11:02.062Z,98747.69
2017-11-16T22:13:30.414Z,98742.75
2017-11-16T22:15:58.741Z,98746.29
2017-11-16T22:18:27.082Z,98749.69
2017-11-16T22:20:55.460Z,98748.66
2017-11-16T22:23:23.828Z,98725.19
2017-11-16T22:25:52.176Z,98746.56
2017-11-16T22:28:20.492Z,98746.81
2017-11-16T22:30:48.820Z,98752.48
2017-11-16T22:33:17.143Z,98751.29
2017-11-16T22:35:45.476Z,98749.39
2017-11-16T22:38:14.577Z,98746.57
2017-11-16T22:40:42.920Z,98754.46
2017-11-16T22:43:11.252Z,98745.45
2017-11-16T22:45:41.453Z,98753.77
2017-11-16T22:48:09.783Z,98750.28
2017-11-16T22:50:38.133Z,98749.27
2017-11-16T22:53:06.482Z,98747.86
2017-11-16T22:55:34.836Z,98754.55
2017-11-16T22:58:03.956Z,98758.20
2017-11-16T23:00:33.011Z,98748.11
2017-11-16T23:03:01.354Z,98759.88
2017-11-16T23:05:29.739Z,98763.80
2017-11-16T23:07:58.112Z,98766.67
2017-11-16T23:10:26.445Z,98765.60
2017-11-16T23:12:55.573Z,98759.98
2017-11-16T23:15:26.287Z,98761.52
2017-11-16T23:17:54.779Z,98750.80
2017-11-16T23:20:23.660Z,98765.85
2017-11-16T23:22:52.000Z,98760.31
2017-11-16T23:25:20.346Z,98763.44
2017-11-16T23:27:49.851Z,98758.80
2017-11-16T23:30:18.682Z,98761.30
2017-11-16T23:32:47.045Z,98764.64
2017-11-16T23:35:15.414Z,98760.67
2017-11-16T23:37:43.741Z,98757.24
2017-11-16T23:40:12.865Z,98750.41
2017-11-16T23:42:41.268Z,98748.58
2017-11-16T23:45:09.600Z,98736.97
2017-11-16T23:47:37.950Z,98732.05
2017-11-16T23:50:06.279Z,98743.30
2017-11-16T23:52:34.600Z,98736.88
2017-11-16T23:55:02.948Z,98737.48
2017-11-16T23:57:31.281Z,98734.09
2017-11-16T23:59:59.645Z,98735.26
